Time;durP1;ratioP1;P1;durP2;ratioP2;P2;SDS_P1;SDS_P2;PMS_P1;PMS_P2;Temp;Humidity;BMP_temperature;BMP_pressure;BME280_temperature;BME280_humidity;BME280_pressure;Samples;Min_cycle;Max_cycle;Signal;HPM_P1;HPM_P2
2022/05/26 00:00:21;;;;;;;0.40;0.20;;;;;;;15.48;65.39;100277.02;103351;1278;109863;-69
2022/05/26 00:03:01;;;;;;;0.40;0.20;;;;;;;15.42;65.41;100272.48;103288;1278;138496;-68
2022/05/26 00:05:29;;;;;;;0.40;0.20;;;;;;;15.39;65.26;100268.19;103455;1279;108854;-68
2022/05/26 00:07:57;;;;;;;0.40;0.20;;;;;;;15.39;65.38;100268.71;103276;1279;139194;-69
2022/05/26 00:10:25;;;;;;;0.40;0.20;;;;;;;15.35;65.62;100274.23;103402;1279;95171;-69
2022/05/26 00:12:53;;;;;;;0.40;0.20;;;;;;;15.35;65.41;100274.80;103411;1279;109750;-70
2022/05/26 00:15:21;;;;;;;0.40;0.20;;;;;;;15.35;65.42;100273.00;103294;1280;139052;-68
2022/05/26 00:17:49;;;;;;;0.40;0.20;;;;;;;15.30;65.39;100270.02;103456;1279;108798;-68
2022/05/26 00:20:18;;;;;;;0.40;0.20;;;;;;;15.16;65.71;100271.40;103211;1278;139352;-69
2022/05/26 00:22:46;;;;;;;0.40;0.20;;;;;;;15.13;65.89;100269.77;103487;1279;95679;-69
2022/05/26 00:25:14;;;;;;;0.40;0.20;;;;;;;15.14;65.65;100275.96;103438;1279;109748;-69
2022/05/26 00:27:41;;;;;;;0.40;0.20;;;;;;;15.06;65.61;100276.34;103359;1279;139384;-68
2022/05/26 00:30:10;;;;;;;0.40;0.20;;;;;;;14.95;65.75;100277.56;103433;1279;108839;-67
2022/05/26 00:32:38;;;;;;;0.40;0.20;;;;;;;14.89;65.79;100278.41;103311;1280;138727;-68
2022/05/26 00:35:07;;;;;;;0.40;0.20;;;;;;;14.85;65.87;100273.73;103435;1278;95228;-68
2022/05/26 00:37:35;;;;;;;0.40;0.30;;;;;;;14.80;65.93;100277.93;103587;1279;109783;-68
2022/05/26 00:40:06;;;;;;;0.40;0.20;;;;;;;14.72;66.19;100278.45;103375;1279;138593;-73
2022/05/26 00:42:34;;;;;;;0.40;0.20;;;;;;;14.75;66.12;100284.92;103701;1278;108802;-68
2022/05/26 00:45:03;;;;;;;0.40;0.20;;;;;;;14.71;66.05;100282.77;103308;1280;138705;-68
2022/05/26 00:47:35;;;;;;;0.40;0.20;;;;;;;14.70;65.97;100285.33;103605;1280;95609;-69
2022/05/26 00:50:16;;;;;;;0.40;0.30;;;;;;;14.64;66.13;100283.64;103213;1280;139587;-69
2022/05/26 00:52:52;;;;;;;0.40;0.20;;;;;;;14.57;66.23;100284.11;103603;1279;99362;-68
2022/05/26 00:55:26;;;;;;;0.40;0.30;;;;;;;14.47;66.43;100285.96;103450;1279;108791;-68
2022/05/26 00:58:14;;;;;;;0.40;0.20;;;;;;;14.37;66.79;100283.71;103396;1280;138774;-68
2022/05/26 01:00:42;;;;;;;0.40;0.30;;;;;;;14.39;66.82;100285.41;103390;1280;95573;-69
2022/05/26 01:03:36;;;;;;;0.40;0.20;;;;;;;14.42;66.86;100286.39;103627;1278;138780;-68
2022/05/26 01:06:07;;;;;;;0.40;0.20;;;;;;;14.40;66.89;100283.79;103766;1278;99355;-68
2022/05/26 01:08:48;;;;;;;0.40;0.30;;;;;;;14.29;67.09;100279.11;103233;1279;138475;-69
2022/05/26 01:11:16;;;;;;;0.40;0.30;;;;;;;14.28;67.29;100277.14;103302;1278;95246;-68
2022/05/26 01:14:12;;;;;;;0.40;0.30;;;;;;;14.30;67.11;100274.38;103309;1278;139562;-68
2022/05/26 01:16:44;;;;;;;0.40;0.20;;;;;;;14.34;67.28;100277.60;103388;1279;109753;-68
2022/05/26 01:19:36;;;;;;;0.40;0.20;;;;;;;14.32;67.11;100281.28;103537;1279;99771;-69
2022/05/26 01:22:12;;;;;;;0.40;0.30;;;;;;;14.24;67.28;100281.28;103323;1279;138742;-69
2022/05/26 01:24:46;;;;;;;0.40;0.20;;;;;;;14.21;67.44;100278.89;103721;1280;97006;-67
2022/05/26 01:27:37;;;;;;;0.40;0.20;;;;;;;14.22;67.43;100277.23;103403;1280;138482;-69
2022/05/26 01:30:19;;;;;;;0.40;0.30;;;;;;;14.17;67.53;100275.13;103513;1279;110050;-67
2022/05/26 01:33:07;;;;;;;0.40;0.20;;;;;;;14.15;67.57;100273.23;103469;1278;139552;-69
2022/05/26 01:35:57;;;;;;;0.40;0.20;;;;;;;14.19;67.56;100273.63;104201;1280;108941;-70
2022/05/26 01:38:34;;;;;;;0.40;0.20;;;;;;;14.22;67.44;100273.29;103356;1280;138841;-70
2022/05/26 01:41:36;;;;;;;0.40;0.20;;;;;;;14.21;67.23;100274.93;103394;1278;95235;-69
2022/05/26 01:44:39;;;;;;;0.40;0.20;;;;;;;14.21;67.01;100272.43;103251;1277;139062;-69
2022/05/26 01:47:31;;;;;;;0.40;0.20;;;;;;;14.24;67.10;100275.01;103488;1278;99479;-68
2022/05/26 01:50:11;;;;;;;0.40;0.20;;;;;;;14.15;66.88;100277.02;103172;1281;140443;-69
2022/05/26 01:52:58;;;;;;;0.40;0.20;;;;;;;14.11;67.14;100278.96;103427;1280;95840;-68
2022/05/26 01:55:35;;;;;;;0.40;0.30;;;;;;;14.10;67.14;100277.02;103320;1281;95232;-69
2022/05/26 01:58:18;;;;;;;0.40;0.20;;;;;;;14.06;67.17;100279.72;103303;1278;138775;-69
2022/05/26 02:00:47;;;;;;;0.40;0.20;;;;;;;14.07;67.19;100279.11;103480;1279;99526;-68
2022/05/26 02:03:20;;;;;;;0.40;0.30;;;;;;;14.04;67.25;100276.05;103516;1283;138558;-69
2022/05/26 02:06:17;;;;;;;0.40;0.20;;;;;;;14.12;67.20;100275.90;103658;1279;97008;-68
2022/05/26 02:08:51;;;;;;;0.40;0.20;;;;;;;14.18;66.82;100278.27;103389;1278;138992;-68
2022/05/26 02:11:21;;;;;;;0.40;0.20;;;;;;;14.13;66.85;100278.89;103623;1278;109977;-70
2022/05/26 02:13:59;;;;;;;0.40;0.30;;;;;;;14.04;66.82;100277.09;103516;1278;139008;-69
2022/05/26 02:16:39;;;;;;;0.40;0.30;;;;;;;14.06;67.00;100275.22;103533;1281;108998;-68
2022/05/26 02:19:25;;;;;;;0.40;0.20;;;;;;;14.12;66.70;100276.38;104033;1278;95437;-69
2022/05/26 02:22:19;;;;;;;0.40;0.20;;;;;;;14.07;66.33;100277.69;103931;1283;161473;-69
2022/05/26 02:25:24;;;;;;;0.40;0.30;;;;;;;14.04;66.71;100276.40;103338;1280;110320;-69
2022/05/26 02:27:57;;;;;;;0.40;0.20;;;;;;;13.93;66.76;100285.77;103443;1285;139583;-70
2022/05/26 02:30:35;;;;;;;0.40;0.20;;;;;;;13.95;66.68;100285.71;103343;1281;108974;-68
2022/05/26 02:33:14;;;;;;;0.40;0.20;;;;;;;13.93;66.83;100283.81;103345;1281;138878;-69
2022/05/26 02:35:45;;;;;;;0.40;0.30;;;;;;;13.95;66.62;100281.27;104585;1277;95189;-70
2022/05/26 02:38:19;;;;;;;0.40;0.20;;;;;;;13.92;66.74;100277.98;103394;1278;138978;-69
2022/05/26 02:40:48;;;;;;;0.40;0.20;;;;;;;13.85;66.90;100278.96;104275;1281;99408;-67
2022/05/26 02:43:22;;;;;;;0.40;0.20;;;;;;;13.86;67.07;100277.50;103372;1278;107804;-69
2022/05/26 02:46:19;;;;;;;0.40;0.20;;;;;;;13.89;66.92;100280.77;103311;1280;138768;-69
2022/05/26 02:49:42;;;;;;;0.40;0.30;;;;;;;13.87;66.67;100276.39;103451;1277;95182;-70
2022/05/26 02:52:34;;;;;;;0.40;0.20;;;;;;;13.92;66.92;100278.70;102706;1287;109745;-69
2022/05/26 02:55:05;;;;;;;0.40;0.20;;;;;;;13.91;66.65;100274.63;103384;1281;99426;-68
2022/05/26 02:57:50;;;;;;;0.40;0.20;;;;;;;13.93;66.78;100280.43;103530;1281;138161;-68
2022/05/26 03:00:37;;;;;;;0.40;0.20;;;;;;;13.89;66.63;100274.70;103432;1281;96005;-69
2022/05/26 03:03:15;;;;;;;0.40;0.20;;;;;;;13.86;66.70;100276.25;103418;1278;138913;-68
2022/05/26 03:05:50;;;;;;;0.40;0.20;;;;;;;13.75;66.77;100275.27;103445;1277;109991;-69
2022/05/26 03:08:21;;;;;;;0.40;0.40;;;;;;;13.73;66.91;100272.52;103465;1278;138488;-69
2022/05/26 03:10:52;;;;;;;0.40;0.30;;;;;;;13.69;67.00;100267.15;104265;1279;108824;-69
2022/05/26 03:13:20;;;;;;;0.40;0.30;;;;;;;13.66;67.34;100269.77;103549;1277;96074;-69
2022/05/26 03:15:48;;;;;;;0.40;0.30;;;;;;;13.67;67.32;100273.82;103445;1281;139128;-70
2022/05/26 03:18:16;;;;;;;0.40;0.20;;;;;;;13.64;67.94;100271.82;104141;1281;109758;-69
2022/05/26 03:20:44;;;;;;;0.40;0.30;;;;;;;13.62;68.05;100272.79;103354;1278;139090;-67
2022/05/26 03:23:11;;;;;;;0.40;0.30;;;;;;;13.67;68.08;100272.77;103498;1281;109471;-70
2022/05/26 03:25:45;;;;;;;0.40;0.20;;;;;;;13.72;68.25;100272.54;103520;1277;95643;-68
2022/05/26 03:28:13;;;;;;;0.40;0.30;;;;;;;13.71;68.52;100274.89;103659;1280;95242;-69
2022/05/26 03:30:41;;;;;;;0.40;0.30;;;;;;;13.69;68.81;100274.46;103426;1278;109972;-67
2022/05/26 03:33:09;;;;;;;0.40;0.20;;;;;;;13.76;69.01;100280.42;103804;1281;139422;-69
2022/05/26 03:41:10;;;;;;;0.40;0.30;;;;;;;13.82;69.66;100278.39;104244;1278;95519;-68
2022/05/26 03:43:43;;;;;;;0.40;0.20;;;;;;;13.94;69.65;100279.52;103540;1281;108679;-70
2022/05/26 03:46:11;;;;;;;0.40;0.20;;;;;;;14.05;69.58;100279.91;104259;1280;98945;-68
2022/05/26 03:48:40;;;;;;;0.40;0.20;;;;;;;14.19;69.14;100285.92;103447;1278;109093;-68
2022/05/26 03:51:08;;;;;;;0.40;0.20;;;;;;;14.26;69.14;100290.81;103463;1281;139045;-69
2022/05/26 03:53:36;;;;;;;0.40;0.20;;;;;;;14.27;69.40;100290.61;103553;1280;95227;-70
2022/05/26 03:56:05;;;;;;;0.40;0.20;;;;;;;14.36;69.26;100288.58;104097;1281;140633;-68
2022/05/26 03:58:33;;;;;;;0.40;0.20;;;;;;;14.41;69.14;100287.33;104207;1278;99443;-69
2022/05/26 04:01:03;;;;;;;0.40;0.20;;;;;;;14.40;69.03;100288.94;103505;1280;110313;-69
2022/05/26 04:03:31;;;;;;;0.40;0.20;;;;;;;14.38;69.18;100292.06;103410;1281;139022;-67
2022/05/26 04:05:59;;;;;;;0.40;0.20;;;;;;;14.39;69.19;100292.92;103438;1278;95202;-68
2022/05/26 04:08:27;;;;;;;0.40;0.20;;;;;;;14.38;69.47;100289.40;103301;1278;138820;-70
2022/05/26 04:10:55;;;;;;;0.40;0.20;;;;;;;14.38;69.66;100288.87;103481;1278;98021;-70
2022/05/26 04:13:23;;;;;;;0.40;0.20;;;;;;;14.44;69.57;100290.39;103455;1277;108906;-68
2022/05/26 04:15:54;;;;;;;0.40;0.20;;;;;;;14.49;69.50;100290.16;103368;1280;139170;-70
2022/05/26 04:18:22;;;;;;;0.40;0.20;;;;;;;14.53;69.70;100291.78;103588;1278;95695;-70
2022/05/26 04:20:49;;;;;;;0.40;0.20;;;;;;;14.56;69.64;100295.75;103450;1278;138518;-68
2022/05/26 04:23:17;;;;;;;0.40;0.20;;;;;;;14.59;69.81;100295.61;103529;1277;98699;-68
2022/05/26 04:25:45;;;;;;;0.40;0.20;;;;;;;14.66;69.65;100294.61;103361;1277;139047;-68
2022/05/26 04:28:13;;;;;;;0.40;0.20;;;;;;;14.71;69.74;100296.17;103452;1280;96147;-69
2022/05/26 04:30:40;;;;;;;0.40;0.20;;;;;;;14.84;69.55;100294.20;103479;1277;95179;-69
2022/05/26 04:33:08;;;;;;;0.40;0.20;;;;;;;14.86;69.42;100294.59;103392;1279;138704;-69
2022/05/26 04:35:36;;;;;;;0.40;0.20;;;;;;;14.84;69.49;100296.83;103523;1280;99474;-68
2022/05/26 04:38:04;;;;;;;0.40;0.20;;;;;;;14.85;69.68;100294.66;103336;1278;139391;-69
2022/05/26 04:40:32;;;;;;;0.40;0.20;;;;;;;14.91;69.68;100289.36;103454;1280;95214;-69
2022/05/26 04:43:00;;;;;;;0.40;0.20;;;;;;;14.97;69.67;100291.23;103481;1277;95723;-69
2022/05/26 04:45:28;;;;;;;0.40;0.20;;;;;;;15.09;69.71;100289.98;103258;1280;138579;-69
2022/05/26 04:47:55;;;;;;;0.40;0.20;;;;;;;15.11;69.50;100283.99;103635;1279;99411;-70
2022/05/26 04:50:24;;;;;;;0.40;0.20;;;;;;;15.14;69.63;100290.83;103516;1280;138660;-68
2022/05/26 04:52:51;;;;;;;0.40;0.20;;;;;;;15.22;69.53;100289.21;103621;1280;96167;-68
2022/05/26 04:55:19;;;;;;;0.40;0.20;;;;;;;15.35;69.86;100287.50;103424;1277;95453;-68
2022/05/26 04:57:48;;;;;;;0.40;0.20;;;;;;;15.55;69.22;100286.91;103410;1278;138893;-68
2022/05/26 05:00:16;;;;;;;0.40;0.20;;;;;;;15.59;68.84;100287.80;103510;1279;99686;-66
2022/05/26 05:02:44;;;;;;;0.40;0.20;;;;;;;15.61;68.72;100281.62;103318;1278;138600;-68
2022/05/26 05:05:12;;;;;;;0.40;0.20;;;;;;;15.62;68.64;100283.33;103371;1280;95644;-67
2022/05/26 05:07:40;;;;;;;0.40;0.20;;;;;;;15.69;68.97;100278.71;103615;1279;95674;-69
2022/05/26 05:10:09;;;;;;;0.40;0.20;;;;;;;15.83;68.70;100278.03;103869;1278;109802;-67
2022/05/26 05:12:36;;;;;;;0.40;0.20;;;;;;;15.96;68.22;100282.75;103726;1279;99490;-67
2022/05/26 05:15:12;;;;;;;0.40;0.20;;;;;;;16.01;67.95;100287.69;103474;1278;138298;-68
2022/05/26 05:17:40;;;;;;;0.40;0.10;;;;;;;16.10;67.84;100288.15;103514;1278;95255;-67
2022/05/26 05:20:08;;;;;;;0.40;0.20;;;;;;;16.20;67.69;100288.52;103357;1278;139046;-67
2022/05/26 05:22:52;;;;;;;0.40;0.20;;;;;;;16.30;67.39;100288.01;103382;1281;109816;-67
2022/05/26 05:25:24;;;;;;;0.40;0.10;;;;;;;16.40;67.09;100290.54;103426;1280;99603;-67
2022/05/26 05:27:57;;;;;;;0.40;0.20;;;;;;;16.42;66.70;100295.31;103531;1280;138133;-67
2022/05/26 05:30:30;;;;;;;0.40;0.20;;;;;;;16.45;66.68;100294.80;103532;1281;95726;-67
2022/05/26 05:33:08;;;;;;;0.40;0.10;;;;;;;16.57;66.75;100293.61;103289;1279;140865;-68
2022/05/26 05:35:43;;;;;;;0.40;0.20;;;;;;;16.60;66.15;100295.23;103461;1278;110163;-67
2022/05/26 05:38:12;;;;;;;0.40;0.20;;;;;;;16.62;66.20;100295.48;103507;1280;138492;-67
2022/05/26 05:40:40;;;;;;;0.40;0.20;;;;;;;16.71;65.75;100294.66;103697;1279;108940;-67
2022/05/26 05:43:08;;;;;;;0.40;0.20;;;;;;;16.82;65.67;100294.08;103615;1280;96053;-67
2022/05/26 05:45:37;;;;;;;0.40;0.10;;;;;;;16.90;65.14;100295.43;103626;1279;138011;-66
2022/05/26 05:48:07;;;;;;;0.40;0.20;;;;;;;16.95;65.00;100289.27;103879;1279;109790;-66
2022/05/26 05:50:34;;;;;;;0.40;0.10;;;;;;;17.05;64.97;100290.52;103422;1279;141602;-65
2022/05/26 05:53:03;;;;;;;0.40;0.20;;;;;;;17.16;64.78;100292.59;103392;1280;108923;-65
2022/05/26 05:55:32;;;;;;;0.40;0.20;;;;;;;17.27;64.35;100290.37;103524;1279;95240;-66
2022/05/26 05:57:59;;;;;;;0.40;0.20;;;;;;;17.32;63.39;100290.63;103724;1279;137872;-65
2022/05/26 06:00:27;;;;;;;0.40;0.20;;;;;;;17.42;63.57;100292.23;103533;1279;109607;-67
2022/05/26 06:03:00;;;;;;;0.40;0.20;;;;;;;17.51;62.18;100296.37;103602;1279;138689;-64
2022/05/26 06:05:28;;;;;;;0.40;0.20;;;;;;;17.53;62.05;100296.98;103488;1279;108901;-64
2022/05/26 06:07:56;;;;;;;0.40;0.20;;;;;;;17.50;61.71;100292.16;103336;1279;138431;-64
2022/05/26 06:10:24;;;;;;;0.40;0.20;;;;;;;17.50;62.08;100290.87;103530;1280;96661;-63
2022/05/26 06:12:52;;;;;;;0.40;0.20;;;;;;;17.54;61.88;100293.71;103495;1280;109989;-64
2022/05/26 06:15:20;;;;;;;0.40;0.20;;;;;;;17.56;61.68;100293.79;103444;1279;139063;-64
2022/05/26 06:17:48;;;;;;;0.40;0.20;;;;;;;17.54;61.32;100290.83;103484;1280;108562;-64
2022/05/26 06:20:16;;;;;;;0.40;0.20;;;;;;;17.57;61.43;100297.83;103357;1279;139464;-65
2022/05/26 06:22:46;;;;;;;0.40;0.20;;;;;;;17.61;61.57;100298.34;103581;1280;95640;-64
2022/05/26 06:25:17;;;;;;;0.40;0.20;;;;;;;17.68;61.85;100297.05;103563;1279;109910;-64
2022/05/26 06:30:33;;;;;;;0.40;0.20;;;;;;;17.75;61.12;100292.17;103498;1279;109631;-64
2022/05/26 06:38:42;;;;;;;0.40;0.20;;;;;;;17.84;60.02;100282.45;103402;1279;138106;-66
2022/05/26 06:44:03;;;;;;;0.40;0.20;;;;;;;18.02;58.26;100280.36;103408;1279;138820;-63
2022/05/26 06:46:31;;;;;;;0.40;0.20;;;;;;;18.13;57.97;100275.57;103568;1280;96701;-64
2022/05/26 06:48:58;;;;;;;0.40;0.10;;;;;;;18.28;57.30;100275.96;103558;1279;95726;-64
2022/05/26 06:51:29;;;;;;;0.40;0.20;;;;;;;18.39;57.09;100272.75;103411;1279;138840;-64
2022/05/26 06:53:56;;;;;;;0.40;0.20;;;;;;;18.48;57.61;100267.77;103540;1279;99481;-64
2022/05/26 06:56:24;;;;;;;0.40;0.20;;;;;;;18.48;56.93;100269.16;103428;1280;138204;-63
2022/05/26 06:58:52;;;;;;;0.40;0.20;;;;;;;18.51;57.51;100271.88;103518;1279;95540;-65
2022/05/26 07:01:21;;;;;;;0.40;0.10;;;;;;;18.58;57.18;100266.73;103458;1279;95259;-64
2022/05/26 07:03:49;;;;;;;0.40;0.10;;;;;;;18.65;56.65;100262.70;103433;1279;138502;-64
2022/05/26 07:06:20;;;;;;;0.40;0.20;;;;;;;18.73;56.90;100258.48;103629;1279;99040;-66
2022/05/26 07:08:50;;;;;;;0.40;0.10;;;;;;;18.80;56.43;100262.54;103919;1279;138551;-66
2022/05/26 07:11:18;;;;;;;0.40;0.20;;;;;;;18.79;56.19;100259.90;103539;1279;95220;-65
2022/05/26 07:13:46;;;;;;;0.40;0.20;;;;;;;18.85;56.19;100258.21;103372;1279;138339;-65
2022/05/26 07:16:15;;;;;;;0.40;0.20;;;;;;;18.91;55.81;100259.52;103416;1279;109893;-65
2022/05/26 07:18:43;;;;;;;0.40;0.20;;;;;;;19.01;55.32;100256.71;104363;1279;99999;-65
2022/05/26 07:21:11;;;;;;;0.40;0.20;;;;;;;19.13;55.51;100256.66;103209;1281;138583;-64
2022/05/26 07:23:39;;;;;;;0.40;0.20;;;;;;;19.17;55.54;100258.73;103383;1279;95233;-64
2022/05/26 07:26:10;;;;;;;0.40;0.20;;;;;;;19.25;55.53;100253.76;103376;1279;138987;-65
2022/05/26 07:28:41;;;;;;;0.40;0.20;;;;;;;19.25;55.42;100253.98;103613;1279;110018;-65
2022/05/26 07:31:12;;;;;;;0.40;0.10;;;;;;;19.30;55.19;100254.89;103514;1279;99477;-64
2022/05/26 07:33:40;;;;;;;0.40;0.20;;;;;;;19.41;55.49;100252.70;103271;1279;138072;-65
2022/05/26 07:41:16;;;;;;;0.40;0.10;;;;;;;19.46;52.56;100253.99;103413;1280;95652;-66
2022/05/26 07:41:45;;;;;;;0.40;0.20;;;;;;;19.54;52.71;100252.20;103306;1279;108968;-64
2022/05/26 07:44:13;;;;;;;0.40;0.20;;;;;;;19.62;51.21;100251.55;103564;1279;138485;-65
2022/05/26 07:46:41;;;;;;;0.40;0.10;;;;;;;19.63;50.74;100249.12;103526;1279;109105;-65
2022/05/26 07:49:09;;;;;;;0.40;0.10;;;;;;;19.66;50.14;100253.77;103441;1279;96823;-65
2022/05/26 07:51:37;;;;;;;0.40;0.10;;;;;;;19.71;50.01;100251.11;103269;1277;138712;-65
2022/05/26 07:54:04;;;;;;;0.40;0.20;;;;;;;19.77;50.26;100249.05;103411;1277;109752;-64
2022/05/26 07:56:36;;;;;;;0.40;0.10;;;;;;;19.85;50.42;100249.64;103458;1277;138325;-66
2022/05/26 07:59:06;;;;;;;0.40;0.10;;;;;;;19.91;49.62;100252.66;103461;1277;109127;-65
2022/05/26 08:01:34;;;;;;;0.40;0.10;;;;;;;20.02;49.66;100249.44;103475;1278;95258;-62
2022/05/26 08:04:05;;;;;;;0.40;0.10;;;;;;;20.16;49.32;100242.35;103849;1279;138178;-65
2022/05/26 08:06:35;;;;;;;0.40;0.10;;;;;;;20.22;48.17;100245.37;103568;1278;109795;-65
2022/05/26 08:09:04;;;;;;;0.40;0.10;;;;;;;20.30;49.07;100247.70;103444;1278;138916;-64
2022/05/26 08:11:32;;;;;;;0.40;0.20;;;;;;;20.42;48.56;100243.04;103462;1278;106505;-64
2022/05/26 08:14:00;;;;;;;0.40;0.10;;;;;;;20.49;47.85;100240.55;103441;1277;138493;-65
2022/05/26 08:16:28;;;;;;;0.40;0.10;;;;;;;20.56;46.60;100241.55;103558;1277;95201;-67
2022/05/26 08:18:57;;;;;;;0.40;0.10;;;;;;;20.59;45.61;100242.05;103499;1277;110319;-63
2022/05/26 08:21:25;;;;;;;0.40;0.10;;;;;;;20.69;45.51;100240.48;103811;1277;139093;-65
2022/05/26 08:23:53;;;;;;;0.40;0.10;;;;;;;20.80;44.43;100242.77;103295;1277;108501;-65
2022/05/26 08:26:21;;;;;;;0.40;0.10;;;;;;;20.82;44.30;100241.14;103285;1279;139206;-65
2022/05/26 08:28:49;;;;;;;0.40;0.10;;;;;;;20.93;44.31;100239.52;103484;1279;95629;-63
2022/05/26 08:31:17;;;;;;;0.40;0.10;;;;;;;21.04;43.96;100237.75;103238;1279;109747;-66
2022/05/26 08:33:45;;;;;;;0.40;0.10;;;;;;;21.17;44.74;100233.78;103368;1279;138835;-65
2022/05/26 08:36:16;;;;;;;0.40;0.10;;;;;;;21.27;43.63;100239.37;103430;1279;107806;-66
2022/05/26 08:38:44;;;;;;;0.40;0.10;;;;;;;21.32;43.91;100236.11;103358;1279;138371;-65
2022/05/26 08:41:28;;;;;;;0.40;0.10;;;;;;;21.37;43.59;100239.17;103456;1279;95435;-67
2022/05/26 08:44:03;;;;;;;0.40;0.10;;;;;;;21.53;44.04;100240.75;103259;1279;138502;-67
2022/05/26 08:46:37;;;;;;;0.40;0.10;;;;;;;21.63;42.30;100236.16;103470;1279;100857;-65
2022/05/26 08:49:08;;;;;;;0.40;0.10;;;;;;;21.70;42.36;100239.63;103205;1279;107112;-64
2022/05/26 08:52:18;;;;;;;0.40;0.10;;;;;;;21.83;41.98;100237.22;103088;1279;138898;-64
2022/05/26 08:55:01;;;;;;;0.40;0.10;;;;;;;21.98;41.08;100238.83;103503;1279;95456;-65
2022/05/26 08:57:44;;;;;;;0.40;0.10;;;;;;;22.15;41.07;100238.58;103317;1279;138906;-65
2022/05/26 09:00:16;;;;;;;0.40;0.10;;;;;;;22.52;41.04;100239.84;103501;1279;99564;-65
2022/05/26 09:02:44;;;;;;;0.40;0.10;;;;;;;22.86;40.04;100240.26;103466;1279;138730;-64
2022/05/26 09:05:18;;;;;;;0.40;0.10;;;;;;;23.00;38.22;100243.83;103363;1281;96113;-66
2022/05/26 09:13:48;;;;;;;0.40;0.10;;;;;;;23.48;37.91;100230.17;103073;1279;138657;-65
2022/05/26 09:16:16;;;;;;;0.40;0.10;;;;;;;23.46;38.12;100232.32;103494;1279;109031;-64
2022/05/26 09:18:44;;;;;;;0.40;0.10;;;;;;;23.82;38.21;100231.31;103407;1279;96234;-66
2022/05/26 09:21:24;;;;;;;0.40;0.10;;;;;;;24.19;36.93;100225.70;103308;1279;138277;-67
2022/05/26 09:24:30;;;;;;;0.40;0.10;;;;;;;24.81;34.78;100234.27;103509;1278;109364;-65
2022/05/26 09:27:03;;;;;;;0.40;0.10;;;;;;;25.90;32.87;100236.82;103277;1279;138334;-67
2022/05/26 09:29:34;;;;;;;0.40;0.10;;;;;;;26.60;31.71;100236.55;103453;1278;108886;-66
2022/05/26 09:32:05;;;;;;;0.40;0.10;;;;;;;27.41;30.00;100237.63;103494;1279;138971;-66
2022/05/26 09:35:12;;;;;;;0.40;0.10;;;;;;;28.29;28.41;100226.52;103467;1278;95420;-65
2022/05/26 09:37:45;;;;;;;0.40;0.10;;;;;;;29.24;27.81;100225.48;103388;1279;108911;-65
2022/05/26 09:40:17;;;;;;;0.40;0.10;;;;;;;30.04;25.72;100235.07;103610;1278;99467;-64
2022/05/26 09:42:51;;;;;;;0.40;0.00;;;;;;;30.44;24.01;100231.14;103613;1279;108750;-66
2022/05/26 09:45:20;;;;;;;0.40;0.00;;;;;;;31.09;25.01;100231.63;103903;1279;138698;-66
2022/05/26 09:47:57;;;;;;;0.40;0.00;;;;;;;31.42;24.74;100230.95;103469;1279;95250;-66
2022/05/26 09:50:36;;;;;;;0.40;0.00;;;;;;;31.34;24.52;100233.34;103576;1279;138756;-65
2022/05/26 09:53:07;;;;;;;0.40;0.00;;;;;;;30.77;23.94;100231.45;103479;1279;100169;-64
2022/05/26 09:55:49;;;;;;;0.40;0.00;;;;;;;30.56;24.58;100224.34;103412;1278;108973;-65
2022/05/26 09:58:28;;;;;;;0.40;0.00;;;;;;;29.79;24.73;100229.07;103480;1278;96121;-68
2022/05/26 10:00:59;;;;;;;0.40;0.10;;;;;;;29.49;25.48;100229.36;103477;1277;95663;-67
2022/05/26 10:03:36;;;;;;;0.40;0.00;;;;;;;29.99;25.17;100227.45;103395;1277;138265;-67
2022/05/26 10:06:15;;;;;;;0.40;0.00;;;;;;;30.33;25.33;100224.16;103240;1279;99293;-66
2022/05/26 10:08:49;;;;;;;0.40;0.00;;;;;;;29.46;25.93;100226.95;103263;1279;138739;-65
2022/05/26 10:11:45;;;;;;;0.40;0.00;;;;;;;29.09;26.12;100231.00;103505;1279;95224;-65
2022/05/26 10:14:25;;;;;;;0.40;0.00;;;;;;;30.22;25.66;100221.39;103350;1279;139434;-66
2022/05/26 10:17:11;;;;;;;0.40;0.00;;;;;;;30.55;25.29;100212.23;103450;1279;109761;-65
2022/05/26 10:19:57;;;;;;;0.40;0.00;;;;;;;29.78;25.93;100221.59;103275;1279;99592;-66
2022/05/26 10:22:53;;;;;;;0.40;0.00;;;;;;;28.74;26.12;100221.48;103402;1277;107815;-65
2022/05/26 10:25:33;;;;;;;0.40;0.00;;;;;;;28.31;27.38;100221.97;103406;1279;95256;-65
2022/05/26 10:28:18;;;;;;;0.40;0.00;;;;;;;27.75;27.66;100231.11;103362;1277;138586;-65
2022/05/26 10:31:04;;;;;;;0.40;0.00;;;;;;;27.00;28.69;100229.85;103512;1277;109802;-65
2022/05/26 10:33:35;;;;;;;0.40;0.00;;;;;;;26.32;29.85;100228.50;103550;1278;138929;-75
2022/05/26 10:36:25;;;;;;;0.40;0.00;;;;;;;25.88;29.88;100228.06;103333;1279;108809;-65
2022/05/26 10:39:10;;;;;;;0.40;0.10;;;;;;;25.71;31.16;100223.79;103371;1279;139335;-65
2022/05/26 10:41:48;;;;;;;0.40;0.00;;;;;;;26.92;30.33;100221.66;103737;1280;95256;-66
2022/05/26 10:44:29;;;;;;;0.40;0.00;;;;;;;27.07;29.39;100221.67;103296;1279;138435;-65
2022/05/26 10:47:29;;;;;;;0.40;0.00;;;;;;;26.62;30.06;100219.80;103360;1279;99397;-65
2022/05/26 10:50:20;;;;;;;0.40;0.00;;;;;;;26.01;29.93;100217.92;103339;1281;138278;-66
2022/05/26 10:52:59;;;;;;;0.40;0.00;;;;;;;25.71;31.45;100226.71;103235;1279;95825;-64
2022/05/26 10:55:45;;;;;;;0.40;0.10;;;;;;;25.66;32.16;100221.31;103443;1279;95161;-64
2022/05/26 10:58:32;;;;;;;0.40;0.10;;;;;;;25.42;32.57;100227.42;103469;1279;110205;-65
2022/05/26 11:01:17;;;;;;;0.40;0.10;;;;;;;25.30;32.62;100231.73;103421;1279;99613;-64
2022/05/26 11:03:51;;;;;;;0.40;0.00;;;;;;;25.05;32.77;100231.79;103450;1281;138848;-65
2022/05/26 11:06:30;;;;;;;0.40;0.10;;;;;;;24.64;33.32;100234.64;103326;1281;95656;-65
2022/05/26 11:09:17;;;;;;;0.40;0.00;;;;;;;24.20;34.25;100235.05;103278;1281;138120;-65
2022/05/26 11:11:52;;;;;;;0.40;0.10;;;;;;;23.83;35.99;100231.43;103400;1280;109692;-64
2022/05/26 11:17:44;;;;;;;0.40;0.10;;;;;;;23.84;35.89;100232.20;103282;1281;108913;-65
2022/05/26 11:20:36;;;;;;;0.40;0.00;;;;;;;23.87;36.19;100226.20;103492;1281;139294;-65
2022/05/26 11:23:05;;;;;;;0.40;0.10;;;;;;;23.84;35.66;100224.24;103360;1281;95475;-65
2022/05/26 11:25:43;;;;;;;0.40;0.10;;;;;;;23.73;36.21;100222.83;103375;1281;109875;-65
2022/05/26 11:28:21;;;;;;;0.40;0.10;;;;;;;23.47;36.69;100236.47;103296;1281;99568;-66
2022/05/26 11:36:51;;;;;;;0.40;0.10;;;;;;;22.90;39.04;100240.35;103303;1281;95438;-65
2022/05/26 11:39:42;;;;;;;0.40;0.10;;;;;;;22.94;39.20;100240.33;103359;1281;138182;-66
2022/05/26 11:42:26;;;;;;;0.40;0.10;;;;;;;22.96;38.95;100240.91;103429;1281;99457;-63
2022/05/26 11:44:54;;;;;;;0.40;0.10;;;;;;;23.00;39.32;100233.55;103152;1281;138648;-65
2022/05/26 11:47:32;;;;;;;0.40;0.10;;;;;;;22.96;39.41;100232.05;103247;1281;95711;-65
2022/05/26 11:50:19;;;;;;;0.40;0.10;;;;;;;23.06;39.58;100228.65;103288;1281;138443;-64
2022/05/26 11:52:53;;;;;;;0.40;0.10;;;;;;;23.25;39.11;100223.72;103330;1281;109798;-64
2022/05/26 11:55:45;;;;;;;0.40;0.10;;;;;;;23.26;38.96;100216.23;103275;1281;99448;-65
2022/05/26 11:58:31;;;;;;;0.40;0.10;;;;;;;23.29;39.40;100212.73;103307;1281;108841;-63
2022/05/26 12:01:22;;;;;;;0.40;0.10;;;;;;;23.41;38.69;100207.90;103289;1281;95369;-65
2022/05/26 12:03:56;;;;;;;0.40;0.10;;;;;;;23.45;36.74;100200.94;103299;1279;138227;-63
2022/05/26 12:06:40;;;;;;;0.40;0.10;;;;;;;23.46;36.52;100206.24;103495;1279;109836;-63
2022/05/26 12:09:27;;;;;;;0.40;0.10;;;;;;;23.53;36.28;100201.50;103298;1279;138757;-63
2022/05/26 12:12:07;;;;;;;0.40;0.10;;;;;;;23.64;36.61;100198.79;103365;1279;108791;-64
2022/05/26 12:14:44;;;;;;;0.40;0.00;;;;;;;23.73;37.23;100198.91;103423;1279;137381;-64
2022/05/26 12:17:29;;;;;;;0.40;0.00;;;;;;;23.87;37.07;100200.81;103418;1279;95620;-64
2022/05/26 12:20:18;;;;;;;0.40;0.10;;;;;;;23.84;36.05;100200.50;103329;1279;138409;-65